Time;durP1;ratioP1;P1;durP2;ratioP2;P2;SDS_P1;SDS_P2;PMS_P1;PMS_P2;Temp;Humidity;BMP_temperature;BMP_pressure;BME280_temperature;BME280_humidity;BME280_pressure;Samples;Min_cycle;Max_cycle;Signal;HPM_P1;HPM_P2
2024/01/22 00:00:51;;;;;;;;;;;;;;;;;;5136215;27;19927;-40
2024/01/22 00:03:18;;;;;;;;;;;;;;;;;;5135962;27;19929;-40
2024/01/22 00:05:44;;;;;;;;;;;;;;;;;;5135900;27;20355;-40
2024/01/22 00:08:11;;;;;;;;;;;;;;;;;;5135823;27;19938;-40
2024/01/22 00:10:37;;;;;;;;;;;;;;;;;;5135623;27;19992;-42
2024/01/22 00:13:03;;;;;;;;;;;;;;;;;;5135777;27;19923;-42
2024/01/22 00:15:29;;;;;;;;;;;;;;;;;;5135579;27;19928;-42
2024/01/22 00:17:56;;;;;;;;;;;;;;;;;;5135837;27;19976;-40
2024/01/22 00:20:22;;;;;;;;;;;;;;;;;;5135761;27;20339;-39
2024/01/22 00:22:49;;;;;;;;;;;;;;;;;;5135742;27;19931;-41
2024/01/22 00:25:15;;;;;;;;;;;;;;;;;;5135735;27;19923;-40
2024/01/22 00:27:41;;;;;;;;;;;;;;;;;;5135728;27;19969;-40
2024/01/22 00:30:07;;;;;;;;;;;;;;;;;;5135663;27;19931;-40
2024/01/22 00:32:33;;;;;;;;;;;;;;;;;;5135243;27;19923;-40
2024/01/22 00:35:00;;;;;;;;;;;;;;;;;;5135325;27;19931;-41
2024/01/22 00:37:26;;;;;;;;;;;;;;;;;;5135279;27;19923;-41
2024/01/22 00:39:55;;;;;;;;;;;;;;;;;;5135116;27;19984;-41
2024/01/22 00:42:21;;;;;;;;;;;;;;;;;;5135294;27;19970;-41
2024/01/22 00:44:47;;;;;;;;;;;;;;;;;;5135264;27;19973;-42
2024/01/22 00:47:14;;;;;;;;;;;;;;;;;;5135204;27;20034;-41
2024/01/22 00:49:40;;;;;;;;;;;;;;;;;;5135054;27;19927;-41
2024/01/22 00:52:06;;;;;;;;;;;;;;;;;;5135264;27;19975;-41
2024/01/22 00:54:32;;;;;;;;;;;;;;;;;;5135263;27;19972;-41
2024/01/22 00:56:58;;;;;;;;;;;;;;;;;;5135102;27;19976;-40
2024/01/22 00:59:25;;;;;;;;;;;;;;;;;;5135102;27;20353;-40
2024/01/22 01:01:51;;;;;;;;;;;;;;;;;;5134758;27;19923;-42
2024/01/22 01:04:17;;;;;;;;;;;;;;;;;;5134347;27;19927;-40
2024/01/22 01:06:43;;;;;;;;;;;;;;;;;;5134819;27;20355;-40
2024/01/22 01:09:10;;;;;;;;;;;;;;;;;;5134612;27;20379;-42
2024/01/22 01:11:36;;;;;;;;;;;;;;;;;;5134673;27;20347;-40
2024/01/22 01:14:02;;;;;;;;;;;;;;;;;;5134646;27;20360;-41
2024/01/22 01:16:29;;;;;;;;;;;;;;;;;;5134545;27;19927;-40
2024/01/22 01:18:55;;;;;;;;;;;;;;;;;;5134628;27;19924;-40
2024/01/22 01:21:22;;;;;;;;;;;;;;;;;;5134746;27;19930;-40
2024/01/22 01:23:49;;;;;;;;;;;;;;;;;;5134639;27;19931;-42
2024/01/22 01:26:15;;;;;;;;;;;;;;;;;;5134611;27;19988;-42
2024/01/22 01:28:41;;;;;;;;;;;;;;;;;;5134565;27;19930;-42
2024/01/22 01:31:08;;;;;;;;;;;;;;;;;;5133960;27;20325;-41
2024/01/22 01:33:34;;;;;;;;;;;;;;;;;;5134397;27;19927;-40
2024/01/22 01:36:00;;;;;;;;;;;;;;;;;;5134304;27;19924;-42
2024/01/22 01:38:26;;;;;;;;;;;;;;;;;;5134036;27;20354;-42
2024/01/22 01:40:52;;;;;;;;;;;;;;;;;;5134201;27;19923;-43
2024/01/22 01:43:19;;;;;;;;;;;;;;;;;;5134065;27;19928;-40
2024/01/22 01:45:45;;;;;;;;;;;;;;;;;;5134169;27;19923;-42
2024/01/22 01:48:11;;;;;;;;;;;;;;;;;;5134061;27;19927;-40
2024/01/22 01:50:37;;;;;;;;;;;;;;;;;;5134246;27;19930;-40
2024/01/22 01:53:04;;;;;;;;;;;;;;;;;;5134361;28;20344;-41
2024/01/22 01:55:30;;;;;;;;;;;;;;;;;;5134319;28;19930;-42
2024/01/22 01:57:56;;;;;;;;;;;;;;;;;;5134200;28;19923;-40
2024/01/22 02:00:27;;;;;;;;;;;;;;;;;;5134098;28;19930;-41
2024/01/22 02:02:54;;;;;;;;;;;;;;;;;;5133942;28;19972;-40
2024/01/22 02:05:20;;;;;;;;;;;;;;;;;;5134076;28;19927;-40
2024/01/22 02:07:47;;;;;;;;;;;;;;;;;;5133641;28;20260;-41
2024/01/22 02:10:13;;;;;;;;;;;;;;;;;;5133860;28;19972;-44
2024/01/22 02:12:39;;;;;;;;;;;;;;;;;;5134058;28;19931;-41
2024/01/22 02:15:06;;;;;;;;;;;;;;;;;;5133974;27;19980;-40
2024/01/22 02:17:32;;;;;;;;;;;;;;;;;;5136698;27;20267;-42
2024/01/22 02:19:59;;;;;;;;;;;;;;;;;;5138180;27;19927;-41
2024/01/22 02:22:25;;;;;;;;;;;;;;;;;;5138262;27;19969;-41
2024/01/22 02:24:51;;;;;;;;;;;;;;;;;;5138228;27;19923;-41
2024/01/22 02:27:17;;;;;;;;;;;;;;;;;;5137981;27;19930;-43
2024/01/22 02:29:44;;;;;;;;;;;;;;;;;;5137924;27;20022;-41
2024/01/22 02:32:10;;;;;;;;;;;;;;;;;;5137653;27;19930;-40
2024/01/22 02:34:37;;;;;;;;;;;;;;;;;;5137779;27;19923;-41
2024/01/22 02:37:03;;;;;;;;;;;;;;;;;;5137748;27;20032;-41
2024/01/22 02:39:30;;;;;;;;;;;;;;;;;;5137654;27;20018;-40
2024/01/22 02:41:56;;;;;;;;;;;;;;;;;;5137703;27;20354;-40
2024/01/22 02:44:22;;;;;;;;;;;;;;;;;;5137558;27;20335;-40
2024/01/22 02:46:48;;;;;;;;;;;;;;;;;;5137660;27;20420;-40
2024/01/22 02:49:15;;;;;;;;;;;;;;;;;;5137627;27;19984;-39
2024/01/22 02:51:41;;;;;;;;;;;;;;;;;;5137598;27;19923;-40
2024/01/22 02:54:08;;;;;;;;;;;;;;;;;;5137567;27;19927;-41
2024/01/22 02:56:34;;;;;;;;;;;;;;;;;;5137488;27;19931;-41
2024/01/22 02:59:00;;;;;;;;;;;;;;;;;;5137324;27;19938;-44
2024/01/22 03:01:26;;;;;;;;;;;;;;;;;;5137292;27;19953;-39
2024/01/22 03:03:53;;;;;;;;;;;;;;;;;;5137173;27;19992;-40
2024/01/22 03:06:19;;;;;;;;;;;;;;;;;;5137307;27;19927;-43
2024/01/22 03:08:45;;;;;;;;;;;;;;;;;;5137009;27;19951;-43
2024/01/22 03:11:11;;;;;;;;;;;;;;;;;;5136919;27;20286;-42
2024/01/22 03:13:38;;;;;;;;;;;;;;;;;;5137089;27;19923;-42
2024/01/22 03:16:04;;;;;;;;;;;;;;;;;;5137087;27;19983;-42
2024/01/22 03:18:30;;;;;;;;;;;;;;;;;;5137040;27;19984;-41
2024/01/22 03:20:57;;;;;;;;;;;;;;;;;;5137110;27;19973;-40
2024/01/22 03:23:23;;;;;;;;;;;;;;;;;;5137027;27;19923;-42
2024/01/22 03:25:49;;;;;;;;;;;;;;;;;;5136822;27;20321;-43
2024/01/22 03:28:15;;;;;;;;;;;;;;;;;;5136225;27;19931;-40
2024/01/22 03:30:41;;;;;;;;;;;;;;;;;;5136622;27;19924;-40
2024/01/22 03:33:08;;;;;;;;;;;;;;;;;;5136536;27;19972;-42
2024/01/22 03:35:34;;;;;;;;;;;;;;;;;;5136495;27;20426;-41
2024/01/22 03:38:00;;;;;;;;;;;;;;;;;;5136635;27;19928;-42
2024/01/22 03:40:26;;;;;;;;;;;;;;;;;;5136641;27;19927;-41
2024/01/22 03:42:53;;;;;;;;;;;;;;;;;;5136531;27;19968;-42
2024/01/22 03:45:19;;;;;;;;;;;;;;;;;;5136560;27;20371;-41
2024/01/22 03:47:45;;;;;;;;;;;;;;;;;;5136486;27;19927;-40
2024/01/22 03:50:11;;;;;;;;;;;;;;;;;;5136310;27;20428;-41
2024/01/22 03:52:38;;;;;;;;;;;;;;;;;;5136462;27;19924;-40
2024/01/22 03:55:04;;;;;;;;;;;;;;;;;;5136335;27;19924;-41
2024/01/22 03:57:30;;;;;;;;;;;;;;;;;;5135682;27;20403;-41
2024/01/22 03:59:56;;;;;;;;;;;;;;;;;;5136044;27;19923;-41
2024/01/22 04:02:24;;;;;;;;;;;;;;;;;;5135834;27;19970;-41
2024/01/22 04:04:52;;;;;;;;;;;;;;;;;;5135962;27;19931;-42
2024/01/22 04:07:18;;;;;;;;;;;;;;;;;;5136008;27;19972;-41
2024/01/22 04:09:45;;;;;;;;;;;;;;;;;;5135899;27;20325;-40
2024/01/22 04:12:11;;;;;;;;;;;;;;;;;;5135934;27;19927;-42
2024/01/22 04:14:37;;;;;;;;;;;;;;;;;;5135923;27;20355;-40
2024/01/22 04:17:03;;;;;;;;;;;;;;;;;;5130278;27;19923;-42
2024/01/22 04:19:29;;;;;;;;;;;;;;;;;;5135896;27;19931;-41
2024/01/22 04:21:56;;;;;;;;;;;;;;;;;;5135911;27;19966;-41
2024/01/22 04:24:22;;;;;;;;;;;;;;;;;;5135599;27;19976;-40
2024/01/22 04:26:48;;;;;;;;;;;;;;;;;;5135461;27;19924;-41
2024/01/22 04:29:14;;;;;;;;;;;;;;;;;;5052021;28;19925;-39
2024/01/22 04:31:40;;;;;;;;;;;;;;;;;;5051786;28;19982;-39
2024/01/22 04:34:07;;;;;;;;;;;;;;;;;;5051668;28;19925;-40
2024/01/22 04:36:33;;;;;;;;;;;;;;;;;;5051508;28;19974;-39
2024/01/22 04:38:59;;;;;;;;;;;;;;;;;;5050418;28;20328;-40
2024/01/22 04:41:25;;;;;;;;;;;;;;;;;;5051571;28;20397;-41
2024/01/22 04:43:51;;;;;;;;;;;;;;;;;;5051338;28;19924;-40
2024/01/22 04:46:18;;;;;;;;;;;;;;;;;;5055092;27;19925;-41
2024/01/22 04:48:44;;;;;;;;;;;;;;;;;;5135272;27;19979;-40
2024/01/22 04:51:10;;;;;;;;;;;;;;;;;;5135205;27;19928;-41
2024/01/22 04:53:37;;;;;;;;;;;;;;;;;;5135050;27;19927;-41
2024/01/22 04:56:03;;;;;;;;;;;;;;;;;;5134964;27;19939;-41
2024/01/22 04:58:29;;;;;;;;;;;;;;;;;;5134981;27;19924;-43
2024/01/22 05:00:55;;;;;;;;;;;;;;;;;;5134769;27;19924;-42
2024/01/22 05:03:23;;;;;;;;;;;;;;;;;;5134939;27;19927;-40
2024/01/22 05:05:50;;;;;;;;;;;;;;;;;;5134694;27;19947;-41
2024/01/22 05:08:16;;;;;;;;;;;;;;;;;;5134877;27;19980;-41
2024/01/22 05:10:42;;;;;;;;;;;;;;;;;;5134710;27;19923;-41
2024/01/22 05:13:08;;;;;;;;;;;;;;;;;;5135015;27;19927;-41
2024/01/22 05:15:35;;;;;;;;;;;;;;;;;;5134868;27;19924;-41
2024/01/22 05:18:01;;;;;;;;;;;;;;;;;;5134769;27;19927;-43
2024/01/22 05:20:27;;;;;;;;;;;;;;;;;;5134748;27;19924;-40
2024/01/22 05:22:53;;;;;;;;;;;;;;;;;;5134505;27;19923;-40
2024/01/22 05:25:19;;;;;;;;;;;;;;;;;;5134417;27;19923;-41
2024/01/22 05:27:47;;;;;;;;;;;;;;;;;;5133858;27;20317;-41
2024/01/22 05:30:13;;;;;;;;;;;;;;;;;;5134119;27;20330;-39
2024/01/22 05:32:40;;;;;;;;;;;;;;;;;;5134428;27;19927;-42
2024/01/22 05:35:06;;;;;;;;;;;;;;;;;;5134340;27;19978;-40
2024/01/22 05:37:32;;;;;;;;;;;;;;;;;;5134212;27;19930;-42
2024/01/22 05:39:58;;;;;;;;;;;;;;;;;;5134338;27;19977;-45
2024/01/22 05:42:24;;;;;;;;;;;;;;;;;;5134344;27;19927;-41
2024/01/22 05:44:51;;;;;;;;;;;;;;;;;;5134419;27;19924;-43
2024/01/22 05:47:17;;;;;;;;;;;;;;;;;;5134226;27;19945;-44
2024/01/22 05:49:45;;;;;;;;;;;;;;;;;;5133540;27;22364;-41
2024/01/22 05:52:11;;;;;;;;;;;;;;;;;;5133435;27;19927;-40
2024/01/22 05:54:38;;;;;;;;;;;;;;;;;;5134072;28;19923;-43
2024/01/22 05:57:04;;;;;;;;;;;;;;;;;;5131413;28;19923;-42
2024/01/22 05:59:30;;;;;;;;;;;;;;;;;;5123607;28;19924;-42
2024/01/22 06:01:56;;;;;;;;;;;;;;;;;;5117257;28;19928;-42
2024/01/22 06:04:23;;;;;;;;;;;;;;;;;;5120094;28;19923;-42
2024/01/22 06:06:49;;;;;;;;;;;;;;;;;;5121584;28;20409;-43
2024/01/22 06:09:16;;;;;;;;;;;;;;;;;;5115385;28;19923;-41
2024/01/22 06:11:43;;;;;;;;;;;;;;;;;;5127435;28;20341;-41
2024/01/22 06:14:09;;;;;;;;;;;;;;;;;;5127459;28;19923;-40
2024/01/22 06:16:35;;;;;;;;;;;;;;;;;;5124930;28;19924;-40
2024/01/22 06:19:01;;;;;;;;;;;;;;;;;;5117031;28;19932;-40
2024/01/22 06:21:28;;;;;;;;;;;;;;;;;;5119266;28;20504;-41
2024/01/22 06:23:54;;;;;;;;;;;;;;;;;;5127742;28;20063;-43
2024/01/22 06:26:22;;;;;;;;;;;;;;;;;;5132222;28;19923;-41
2024/01/22 06:28:48;;;;;;;;;;;;;;;;;;5125235;28;19930;-43
2024/01/22 06:31:14;;;;;;;;;;;;;;;;;;5131377;28;20351;-41
2024/01/22 06:33:41;;;;;;;;;;;;;;;;;;5118662;28;19973;-41
2024/01/22 06:36:07;;;;;;;;;;;;;;;;;;5125462;28;19970;-48
2024/01/22 06:38:34;;;;;;;;;;;;;;;;;;5121552;28;19966;-50
2024/01/22 06:41:00;;;;;;;;;;;;;;;;;;5124718;28;20528;-46
2024/01/22 06:43:26;;;;;;;;;;;;;;;;;;5128395;28;19977;-47
2024/01/22 06:45:52;;;;;;;;;;;;;;;;;;5129224;28;19980;-45
2024/01/22 06:48:18;;;;;;;;;;;;;;;;;;5118773;28;19972;-46
2024/01/22 06:50:45;;;;;;;;;;;;;;;;;;5124221;28;19935;-47
2024/01/22 06:53:11;;;;;;;;;;;;;;;;;;5125921;28;19934;-46
2024/01/22 06:55:37;;;;;;;;;;;;;;;;;;5129421;28;19980;-44
2024/01/22 06:58:04;;;;;;;;;;;;;;;;;;5128575;28;20371;-43
2024/01/22 07:00:32;;;;;;;;;;;;;;;;;;5213590;22;19929;-42
2024/01/22 07:02:59;;;;;;;;;;;;;;;;;;5045627;28;20368;-45
2024/01/22 07:05:26;;;;;;;;;;;;;;;;;;5047680;28;19951;-48
2024/01/22 07:07:53;;;;;;;;;;;;;;;;;;5051971;28;19925;-42
2024/01/22 07:10:21;;;;;;;;;;;;;;;;;;5045444;28;20005;-43
2024/01/22 07:12:47;;;;;;;;;;;;;;;;;;5041199;28;19937;-43
2024/01/22 07:15:13;;;;;;;;;;;;;;;;;;5046851;28;20242;-43
2024/01/22 07:17:40;;;;;;;;;;;;;;;;;;5042516;28;19980;-44
2024/01/22 07:20:06;;;;;;;;;;;;;;;;;;5041544;28;19948;-44
2024/01/22 07:22:32;;;;;;;;;;;;;;;;;;5045154;28;20081;-42
2024/01/22 07:24:58;;;;;;;;;;;;;;;;;;5039192;28;19969;-44
2024/01/22 07:27:24;;;;;;;;;;;;;;;;;;5043911;28;20047;-44
2024/01/22 07:29:51;;;;;;;;;;;;;;;;;;5041846;28;19974;-44
2024/01/22 07:32:17;;;;;;;;;;;;;;;;;;5039259;28;19933;-43
2024/01/22 07:34:43;;;;;;;;;;;;;;;;;;5046410;28;19925;-44
2024/01/22 07:37:09;;;;;;;;;;;;;;;;;;5043154;28;19925;-44
2024/01/22 07:39:35;;;;;;;;;;;;;;;;;;5044418;28;19974;-43
2024/01/22 07:42:01;;;;;;;;;;;;;;;;;;5042809;28;19924;-43
2024/01/22 07:44:28;;;;;;;;;;;;;;;;;;5043768;28;19932;-45
2024/01/22 07:46:54;;;;;;;;;;;;;;;;;;5042750;28;20403;-44
2024/01/22 07:49:20;;;;;;;;;;;;;;;;;;5038662;28;20392;-42
2024/01/22 07:51:46;;;;;;;;;;;;;;;;;;5047886;28;20358;-42
2024/01/22 07:54:13;;;;;;;;;;;;;;;;;;5039653;28;19933;-44
2024/01/22 07:56:39;;;;;;;;;;;;;;;;;;5045225;28;19929;-43
2024/01/22 07:59:05;;;;;;;;;;;;;;;;;;5043538;28;19924;-43
2024/01/22 08:01:31;;;;;;;;;;;;;;;;;;5039461;28;19933;-42
2024/01/22 08:03:57;;;;;;;;;;;;;;;;;;5037458;28;20368;-42
2024/01/22 08:06:23;;;;;;;;;;;;;;;;;;5036396;28;20001;-42
2024/01/22 08:08:50;;;;;;;;;;;;;;;;;;5030261;28;19933;-42
2024/01/22 08:11:16;;;;;;;;;;;;;;;;;;5036667;28;19932;-43
2024/01/22 08:13:42;;;;;;;;;;;;;;;;;;5043201;28;20097;-42
2024/01/22 08:16:08;;;;;;;;;;;;;;;;;;5043945;28;19986;-45
2024/01/22 08:18:35;;;;;;;;;;;;;;;;;;5044620;28;19960;-42
2024/01/22 08:21:02;;;;;;;;;;;;;;;;;;5046777;28;19932;-44
2024/01/22 08:23:28;;;;;;;;;;;;;;;;;;5044443;28;20769;-43
2024/01/22 08:25:54;;;;;;;;;;;;;;;;;;5048301;28;19964;-44
2024/01/22 08:28:21;;;;;;;;;;;;;;;;;;5047712;28;19925;-43
2024/01/22 08:30:47;;;;;;;;;;;;;;;;;;5049027;28;19986;-43
2024/01/22 08:33:13;;;;;;;;;;;;;;;;;;5054601;28;20461;-43
2024/01/22 08:35:39;;;;;;;;;;;;;;;;;;5048514;28;20442;-48
2024/01/22 08:38:06;;;;;;;;;;;;;;;;;;5050868;28;20490;-44
2024/01/22 08:40:32;;;;;;;;;;;;;;;;;;5049714;28;19925;-43
2024/01/22 08:42:58;;;;;;;;;;;;;;;;;;5051647;28;19967;-45
2024/01/22 08:45:24;;;;;;;;;;;;;;;;;;5046778;28;20442;-43
2024/01/22 08:47:50;;;;;;;;;;;;;;;;;;5050416;28;20363;-44
2024/01/22 08:50:20;;;;;;;;;;;;;;;;;;5045679;28;19991;-43
2024/01/22 08:52:47;;;;;;;;;;;;;;;;;;5049084;28;20020;-44
2024/01/22 08:55:14;;;;;;;;;;;;;;;;;;5049193;28;19988;-44
2024/01/22 08:57:40;;;;;;;;;;;;;;;;;;5044679;28;19933;-45
2024/01/22 09:00:10;;;;;;;;;;;;;;;;;;5051642;28;20287;-45
2024/01/22 09:02:37;;;;;;;;;;;;;;;;;;5048398;28;19929;-44
2024/01/22 09:05:03;;;;;;;;;;;;;;;;;;5047889;28;20019;-44
2024/01/22 09:07:29;;;;;;;;;;;;;;;;;;5048071;28;20527;-42
2024/01/22 09:09:56;;;;;;;;;;;;;;;;;;5042665;28;19977;-42
2024/01/22 09:12:23;;;;;;;;;;;;;;;;;;5046513;28;20241;-44
2024/01/22 09:14:49;;;;;;;;;;;;;;;;;;5044290;28;19932;-43
2024/01/22 09:17:15;;;;;;;;;;;;;;;;;;5045918;28;19947;-43
2024/01/22 09:19:41;;;;;;;;;;;;;;;;;;5051563;28;19928;-43
2024/01/22 09:22:07;;;;;;;;;;;;;;;;;;5049812;28;19936;-42
2024/01/22 09:24:33;;;;;;;;;;;;;;;;;;5053628;28;19925;-43
2024/01/22 09:27:00;;;;;;;;;;;;;;;;;;5043142;28;19933;-42
2024/01/22 09:29:26;;;;;;;;;;;;;;;;;;5048272;28;19933;-43
2024/01/22 09:31:53;;;;;;;;;;;;;;;;;;5043076;28;20022;-43
2024/01/22 09:34:19;;;;;;;;;;;;;;;;;;5045525;28;19929;-42
2024/01/22 09:36:45;;;;;;;;;;;;;;;;;;5043762;28;19925;-44
2024/01/22 09:39:11;;;;;;;;;;;;;;;;;;4963015;28;20390;-43
2024/01/22 09:41:37;;;;;;;;;;;;;;;;;;4970344;28;19926;-44
2024/01/22 09:44:04;;;;;;;;;;;;;;;;;;4964184;28;20029;-42
2024/01/22 09:46:30;;;;;;;;;;;;;;;;;;4968881;28;20468;-44
2024/01/22 09:48:56;;;;;;;;;;;;;;;;;;4972116;28;19997;-42
2024/01/22 09:51:22;;;;;;;;;;;;;;;;;;4968787;28;19933;-43
2024/01/22 09:53:49;;;;;;;;;;;;;;;;;;4963961;28;19933;-42
2024/01/22 09:56:15;;;;;;;;;;;;;;;;;;4966304;28;19930;-42
2024/01/22 09:58:41;;;;;;;;;;;;;;;;;;5049384;28;19955;-43
2024/01/22 10:01:07;;;;;;;;;;;;;;;;;;5047496;28;19972;-42
2024/01/22 10:03:33;;;;;;;;;;;;;;;;;;5047019;28;20360;-42
2024/01/22 10:06:00;;;;;;;;;;;;;;;;;;5043447;28;19984;-42
2024/01/22 10:08:27;;;;;;;;;;;;;;;;;;5053160;28;20015;-42
2024/01/22 10:10:53;;;;;;;;;;;;;;;;;;5045852;28;19994;-43
2024/01/22 10:13:19;;;;;;;;;;;;;;;;;;5047499;28;20376;-46
2024/01/22 10:15:46;;;;;;;;;;;;;;;;;;5044442;28;20391;-44
2024/01/22 10:18:12;;;;;;;;;;;;;;;;;;5049665;28;20036;-42
2024/01/22 10:20:39;;;;;;;;;;;;;;;;;;5055058;28;20388;-43
2024/01/22 10:23:05;;;;;;;;;;;;;;;;;;5043489;28;19928;-44
2024/01/22 10:25:31;;;;;;;;;;;;;;;;;;5046794;28;20364;-43
2024/01/22 10:27:57;;;;;;;;;;;;;;;;;;5048679;28;19986;-43
2024/01/22 10:30:24;;;;;;;;;;;;;;;;;;5042983;28;19933;-41
2024/01/22 10:32:50;;;;;;;;;;;;;;;;;;5037379;28;20047;-41
2024/01/22 10:35:16;;;;;;;;;;;;;;;;;;5042523;28;20327;-46
2024/01/22 10:37:42;;;;;;;;;;;;;;;;;;5041678;28;20022;-43
2024/01/22 10:40:11;;;;;;;;;;;;;;;;;;5046115;28;19940;-42
2024/01/22 10:42:38;;;;;;;;;;;;;;;;;;5042636;28;20047;-42
2024/01/22 10:45:04;;;;;;;;;;;;;;;;;;5045762;28;19967;-42
2024/01/22 10:47:30;;;;;;;;;;;;;;;;;;5046373;28;19928;-42
2024/01/22 10:49:56;;;;;;;;;;;;;;;;;;5048145;28;19929;-42
2024/01/22 10:52:22;;;;;;;;;;;;;;;;;;5048054;28;19936;-42
2024/01/22 10:54:48;;;;;;;;;;;;;;;;;;5048647;28;19971;-42
2024/01/22 10:57:15;;;;;;;;;;;;;;;;;;5047131;28;19951;-42
2024/01/22 10:59:41;;;;;;;;;;;;;;;;;;5054100;28;20421;-43
2024/01/22 11:02:07;;;;;;;;;;;;;;;;;;5053192;28;20028;-42
2024/01/22 11:04:34;;;;;;;;;;;;;;;;;;5049243;28;19933;-42
2024/01/22 11:07:01;;;;;;;;;;;;;;;;;;5053977;28;20364;-42
2024/01/22 11:09:27;;;;;;;;;;;;;;;;;;5052221;28;19976;-42
2024/01/22 11:11:53;;;;;;;;;;;;;;;;;;5054381;28;19974;-41
2024/01/22 11:14:20;;;;;;;;;;;;;;;;;;5043824;28;19956;-42
2024/01/22 11:16:46;;;;;;;;;;;;;;;;;;5048756;28;19951;-42
2024/01/22 11:19:12;;;;;;;;;;;;;;;;;;5043272;28;19956;-43
2024/01/22 11:21:38;;;;;;;;;;;;;;;;;;5039326;28;19929;-42
2024/01/22 11:24:05;;;;;;;;;;;;;;;;;;5040619;28;19959;-42
2024/01/22 11:26:31;;;;;;;;;;;;;;;;;;5039990;28;19960;-43
2024/01/22 11:28:57;;;;;;;;;;;;;;;;;;5041452;28;19977;-43
2024/01/22 11:31:24;;;;;;;;;;;;;;;;;;5020851;28;20087;-44
2024/01/22 11:33:50;;;;;;;;;;;;;;;;;;5042071;28;19964;-44
2024/01/22 11:36:17;;;;;;;;;;;;;;;;;;5040094;28;19929;-43
2024/01/22 11:38:43;;;;;;;;;;;;;;;;;;5039103;28;19975;-42
2024/01/22 11:41:09;;;;;;;;;;;;;;;;;;5038292;28;20059;-43
2024/01/22 11:43:35;;;;;;;;;;;;;;;;;;5036253;28;19975;-42
2024/01/22 11:46:02;;;;;;;;;;;;;;;;;;5045290;28;19925;-44
2024/01/22 11:48:28;;;;;;;;;;;;;;;;;;5046129;28;19932;-43
2024/01/22 11:50:55;;;;;;;;;;;;;;;;;;5046147;28;19925;-43
2024/01/22 11:53:21;;;;;;;;;;;;;;;;;;5046626;28;19928;-44
2024/01/22 11:55:47;;;;;;;;;;;;;;;;;;5047673;28;19964;-43
2024/01/22 11:58:13;;;;;;;;;;;;;;;;;;5054104;28;19975;-44
2024/01/22 12:00:39;;;;;;;;;;;;;;;;;;5045077;28;19933;-47
2024/01/22 12:03:05;;;;;;;;;;;;;;;;;;5048420;28;20303;-43
2024/01/22 12:05:32;;;;;;;;;;;;;;;;;;5041657;28;19928;-45
2024/01/22 12:07:58;;;;;;;;;;;;;;;;;;5041546;28;20053;-44
2024/01/22 12:10:26;;;;;;;;;;;;;;;;;;5050105;28;20356;-45
2024/01/22 12:12:52;;;;;;;;;;;;;;;;;;5039231;28;19948;-44
2024/01/22 12:15:18;;;;;;;;;;;;;;;;;;5051766;28;19924;-45
2024/01/22 12:17:45;;;;;;;;;;;;;;;;;;5052165;28;19924;-45
2024/01/22 12:20:11;;;;;;;;;;;;;;;;;;5046768;28;19932;-43
2024/01/22 12:22:40;;;;;;;;;;;;;;;;;;5054340;28;20360;-46
2024/01/22 12:25:07;;;;;;;;;;;;;;;;;;5057699;28;19929;-42
2024/01/22 12:27:33;;;;;;;;;;;;;;;;;;4957280;28;20364;-45
2024/01/22 12:29:59;;;;;;;;;;;;;;;;;;4937467;28;20014;-43
2024/01/22 12:32:26;;;;;;;;;;;;;;;;;;4929148;28;19931;-43
2024/01/22 12:34:52;;;;;;;;;;;;;;;;;;4931718;28;19953;-43
2024/01/22 12:37:18;;;;;;;;;;;;;;;;;;4930713;28;20409;-43
2024/01/22 12:39:45;;;;;;;;;;;;;;;;;;4935881;28;19990;-43
2024/01/22 12:42:11;;;;;;;;;;;;;;;;;;4936199;28;19966;-43
2024/01/22 12:44:37;;;;;;;;;;;;;;;;;;4940555;28;19945;-43
2024/01/22 12:47:03;;;;;;;;;;;;;;;;;;5045742;28;19976;-44
2024/01/22 12:49:29;;;;;;;;;;;;;;;;;;5040951;28;19999;-44
2024/01/22 12:51:56;;;;;;;;;;;;;;;;;;5045995;28;20364;-43
2024/01/22 12:54:22;;;;;;;;;;;;;;;;;;5042384;28;19963;-44
2024/01/22 12:56:48;;;;;;;;;;;;;;;;;;5042020;28;19929;-43
2024/01/22 12:59:14;;;;;;;;;;;;;;;;;;5043311;28;19932;-46
2024/01/22 13:01:41;;;;;;;;;;;;;;;;;;5041496;28;19933;-45
2024/01/22 13:04:07;;;;;;;;;;;;;;;;;;5044321;28;19971;-44
2024/01/22 13:06:33;;;;;;;;;;;;;;;;;;5042212;28;19951;-43
2024/01/22 13:09:00;;;;;;;;;;;;;;;;;;5038185;28;19939;-43
2024/01/22 13:11:26;;;;;;;;;;;;;;;;;;5039072;28;19928;-44
2024/01/22 13:13:52;;;;;;;;;;;;;;;;;;5043846;28;19963;-43
2024/01/22 13:16:18;;;;;;;;;;;;;;;;;;5040841;28;19924;-44
2024/01/22 13:18:45;;;;;;;;;;;;;;;;;;5045144;28;19935;-44
2024/01/22 13:21:13;;;;;;;;;;;;;;;;;;5036171;28;19932;-43
2024/01/22 13:23:39;;;;;;;;;;;;;;;;;;5039068;28;19924;-42
2024/01/22 13:26:08;;;;;;;;;;;;;;;;;;5044589;28;19983;-43
2024/01/22 13:28:35;;;;;;;;;;;;;;;;;;5040784;28;19937;-43
2024/01/22 13:31:01;;;;;;;;;;;;;;;;;;5038109;28;19933;-44
2024/01/22 13:33:27;;;;;;;;;;;;;;;;;;5037133;28;20430;-43
2024/01/22 13:35:53;;;;;;;;;;;;;;;;;;5040358;28;20002;-46
2024/01/22 13:38:19;;;;;;;;;;;;;;;;;;5039718;28;19999;-46
2024/01/22 13:40:46;;;;;;;;;;;;;;;;;;5041836;28;19928;-44
2024/01/22 13:43:12;;;;;;;;;;;;;;;;;;5042684;28;19974;-44
2024/01/22 13:45:38;;;;;;;;;;;;;;;;;;5042860;28;19968;-59
2024/01/22 13:48:04;;;;;;;;;;;;;;;;;;5042885;28;19940;-44
2024/01/22 13:50:31;;;;;;;;;;;;;;;;;;5039277;28;19937;-44
2024/01/22 13:52:57;;;;;;;;;;;;;;;;;;5038164;28;19932;-43
2024/01/22 13:55:26;;;;;;;;;;;;;;;;;;5041264;28;19979;-47
2024/01/22 13:57:52;;;;;;;;;;;;;;;;;;5042730;28;19925;-48
2024/01/22 14:00:18;;;;;;;;;;;;;;;;;;5041781;28;20122;-47
2024/01/22 14:02:44;;;;;;;;;;;;;;;;;;5042195;28;19979;-43
2024/01/22 14:05:11;;;;;;;;;;;;;;;;;;5044693;28;20360;-46
2024/01/22 14:07:37;;;;;;;;;;;;;;;;;;5043065;28;19932;-45
2024/01/22 14:10:03;;;;;;;;;;;;;;;;;;5042262;28;20019;-48
2024/01/22 14:12:29;;;;;;;;;;;;;;;;;;5045872;28;19935;-43
2024/01/22 14:14:55;;;;;;;;;;;;;;;;;;5047455;28;19925;-46
2024/01/22 14:17:21;;;;;;;;;;;;;;;;;;5049879;28;19933;-44
2024/01/22 14:19:48;;;;;;;;;;;;;;;;;;5047443;28;19929;-44
2024/01/22 14:22:14;;;;;;;;;;;;;;;;;;5045313;28;19936;-44
2024/01/22 14:24:40;;;;;;;;;;;;;;;;;;5049650;28;19928;-46
2024/01/22 14:27:06;;;;;;;;;;;;;;;;;;5046718;28;19925;-42
2024/01/22 14:29:32;;;;;;;;;;;;;;;;;;5046940;28;19933;-43
2024/01/22 14:31:58;;;;;;;;;;;;;;;;;;5047005;28;19933;-43
2024/01/22 14:34:25;;;;;;;;;;;;;;;;;;5041078;28;19928;-46
2024/01/22 14:36:51;;;;;;;;;;;;;;;;;;5044739;28;19932;-43
2024/01/22 14:39:18;;;;;;;;;;;;;;;;;;5040229;28;19968;-44
2024/01/22 14:41:44;;;;;;;;;;;;;;;;;;5043764;28;19924;-43
2024/01/22 14:44:10;;;;;;;;;;;;;;;;;;5043840;28;19936;-45
2024/01/22 14:46:37;;;;;;;;;;;;;;;;;;5041701;28;19925;-45
2024/01/22 14:49:03;;;;;;;;;;;;;;;;;;5044519;28;19995;-43
2024/01/22 14:51:34;;;;;;;;;;;;;;;;;;5042601;28;19932;-43
2024/01/22 14:54:01;;;;;;;;;;;;;;;;;;5046664;28;20305;-44
2024/01/22 14:56:27;;;;;;;;;;;;;;;;;;5043541;28;19936;-45
2024/01/22 14:58:53;;;;;;;;;;;;;;;;;;5048535;28;19968;-46
2024/01/22 15:01:19;;;;;;;;;;;;;;;;;;5040493;28;20117;-43
2024/01/22 15:03:46;;;;;;;;;;;;;;;;;;5045099;28;19929;-44
2024/01/22 15:06:12;;;;;;;;;;;;;;;;;;5046697;28;20442;-44
2024/01/22 15:08:38;;;;;;;;;;;;;;;;;;5045776;28;19928;-44
2024/01/22 15:11:04;;;;;;;;;;;;;;;;;;5042245;28;20415;-45
2024/01/22 15:13:31;;;;;;;;;;;;;;;;;;5042662;28;20357;-45
2024/01/22 15:15:57;;;;;;;;;;;;;;;;;;5044110;28;19956;-42
2024/01/22 15:18:23;;;;;;;;;;;;;;;;;;5046184;28;19929;-45
2024/01/22 15:20:49;;;;;;;;;;;;;;;;;;5043266;28;20014;-45
2024/01/22 15:23:16;;;;;;;;;;;;;;;;;;5043512;28;19964;-44
2024/01/22 15:25:42;;;;;;;;;;;;;;;;;;5037506;28;20395;-43
2024/01/22 15:28:09;;;;;;;;;;;;;;;;;;5040244;28;20341;-43
2024/01/22 15:30:35;;;;;;;;;;;;;;;;;;5044882;28;20289;-43
2024/01/22 15:33:03;;;;;;;;;;;;;;;;;;5042168;28;19936;-43
2024/01/22 15:35:31;;;;;;;;;;;;;;;;;;5044292;28;20360;-43
2024/01/22 15:37:58;;;;;;;;;;;;;;;;;;5046597;28;19986;-44
2024/01/22 15:40:24;;;;;;;;;;;;;;;;;;5044741;28;19978;-45
2024/01/22 15:42:50;;;;;;;;;;;;;;;;;;5045717;28;20418;-43
2024/01/22 15:45:16;;;;;;;;;;;;;;;;;;5046199;28;20008;-44
2024/01/22 15:47:42;;;;;;;;;;;;;;;;;;5050386;28;19933;-45
2024/01/22 15:50:09;;;;;;;;;;;;;;;;;;5045685;28;20377;-43
2024/01/22 15:52:35;;;;;;;;;;;;;;;;;;5045795;28;20352;-46
2024/01/22 15:55:01;;;;;;;;;;;;;;;;;;5042833;28;19978;-43
2024/01/22 15:57:27;;;;;;;;;;;;;;;;;;5041303;28;19932;-45
2024/01/22 15:59:54;;;;;;;;;;;;;;;;;;5044570;28;20611;-43
2024/01/22 16:02:20;;;;;;;;;;;;;;;;;;5051521;28;19925;-43
2024/01/22 16:04:46;;;;;;;;;;;;;;;;;;5048978;28;19936;-44
2024/01/22 16:07:12;;;;;;;;;;;;;;;;;;5046610;28;20050;-43
2024/01/22 16:09:39;;;;;;;;;;;;;;;;;;5048949;28;19932;-44
2024/01/22 16:12:06;;;;;;;;;;;;;;;;;;5047918;28;20118;-44
2024/01/22 16:14:32;;;;;;;;;;;;;;;;;;5048584;28;19933;-43
2024/01/22 16:16:59;;;;;;;;;;;;;;;;;;5048026;28;19924;-43
2024/01/22 16:19:25;;;;;;;;;;;;;;;;;;5048296;28;19925;-44
2024/01/22 16:21:51;;;;;;;;;;;;;;;;;;5047244;28;19964;-45
2024/01/22 16:24:17;;;;;;;;;;;;;;;;;;5047607;28;19933;-44
2024/01/22 16:26:43;;;;;;;;;;;;;;;;;;5047399;28;20358;-46
2024/01/22 16:29:10;;;;;;;;;;;;;;;;;;5048526;28;19932;-44
2024/01/22 16:31:36;;;;;;;;;;;;;;;;;;5047865;28;19979;-44
2024/01/22 16:34:03;;;;;;;;;;;;;;;;;;5044163;28;20010;-44
2024/01/22 16:36:29;;;;;;;;;;;;;;;;;;5045453;28;19963;-44
2024/01/22 16:38:55;;;;;;;;;;;;;;;;;;5044028;28;19924;-44